createdAt,value
2023-03-24T00:00:24.843Z,93.23
2023-03-24T00:03:02.579Z,93.19
2023-03-24T00:05:50.848Z,93.57
2023-03-24T00:08:30.866Z,93.43
2023-03-24T00:11:18.865Z,93.80
2023-03-24T00:13:58.834Z,93.79
2023-03-24T00:16:48.865Z,93.41
2023-03-24T00:19:30.852Z,93.82
2023-03-24T00:22:27.852Z,93.90
2023-03-24T00:25:17.868Z,94.28
2023-03-24T00:27:58.866Z,94.13
2023-03-24T00:30:48.959Z,94.51
2023-03-24T00:33:28.915Z,94.80
2023-03-24T00:36:20.937Z,94.87
2023-03-24T00:39:05.715Z,93.97
2023-03-24T00:42:02.883Z,94.80
2023-03-24T00:44:51.899Z,95.09
2023-03-24T00:47:32.837Z,94.73
2023-03-24T00:50:23.882Z,95.49
2023-03-24T00:53:04.894Z,95.22
2023-03-24T00:55:55.892Z,95.31
2023-03-24T00:58:40.868Z,95.21
2023-03-24T01:01:28.855Z,95.40
2023-03-24T01:04:03.026Z,95.54
2023-03-24T01:06:51.873Z,95.42
2023-03-24T01:09:25.069Z,95.59
2023-03-24T01:12:11.891Z,95.91
2023-03-24T01:14:44.980Z,95.77
2023-03-24T01:17:31.907Z,96.14
2023-03-24T01:20:14.881Z,95.88
2023-03-24T01:23:08.891Z,95.97
2023-03-24T01:25:57.926Z,95.80
2023-03-24T01:28:32.208Z,95.92
2023-03-24T01:31:18.892Z,95.93
2023-03-24T01:33:51.974Z,95.94
2023-03-24T01:36:38.901Z,95.73
2023-03-24T01:39:15.550Z,96.00
2023-03-24T01:42:02.885Z,96.18
2023-03-24T01:44:36.030Z,96.17
2023-03-24T01:47:23.968Z,96.31
2023-03-24T01:50:03.178Z,96.34
2023-03-24T01:52:49.886Z,96.43
2023-03-24T01:55:25.017Z,96.56
2023-03-24T01:58:14.030Z,96.88
2023-03-24T02:00:48.062Z,96.81
2023-03-24T02:03:40.939Z,96.84
2023-03-24T02:06:21.946Z,96.95
2023-03-24T02:09:16.902Z,97.10
2023-03-24T02:12:03.907Z,96.95
2023-03-24T02:14:37.033Z,96.79
2023-03-24T02:17:27.940Z,97.23
2023-03-24T02:20:17.169Z,97.18
2023-03-24T02:23:23.954Z,97.25
2023-03-24T02:26:36.030Z,97.38
2023-03-24T02:29:25.918Z,97.27
2023-03-24T02:32:08.908Z,97.54
2023-03-24T02:35:31.914Z,97.80
2023-03-24T02:38:47.923Z,97.78
2023-03-24T02:42:03.041Z,97.74
2023-03-24T02:45:13.947Z,97.81
2023-03-24T02:48:25.913Z,98.34
2023-03-24T02:51:41.146Z,98.55
2023-03-24T02:54:49.060Z,98.37
2023-03-24T02:57:45.904Z,98.62
2023-03-24T03:00:49.992Z,98.66
2023-03-24T03:03:45.954Z,98.58
2023-03-24T03:06:22.238Z,98.79
2023-03-24T03:09:14.985Z,98.93
2023-03-24T03:11:59.942Z,98.80
2023-03-24T03:15:01.942Z,99.22
2023-03-24T03:18:01.957Z,99.08
2023-03-24T03:20:56.962Z,99.55
2023-03-24T03:23:36.516Z,99.45
2023-03-24T03:26:29.959Z,99.53
2023-03-24T03:29:16.046Z,99.97
2023-03-24T03:32:14.012Z,99.90
2023-03-24T03:34:57.145Z,99.85
2023-03-24T03:38:14.945Z,100.00
2023-03-24T03:40:56.128Z,100.00
2023-03-24T03:43:42.965Z,100.00
2023-03-24T03:46:16.597Z,100.00
2023-03-24T03:49:02.953Z,99.95
2023-03-24T03:51:43.122Z,100.00
2023-03-24T03:54:32.946Z,100.00
2023-03-24T03:57:07.131Z,99.87
2023-03-24T03:59:54.096Z,100.00
2023-03-24T04:02:39.183Z,100.00
2023-03-24T04:05:43.153Z,100.00
2023-03-24T04:08:50.950Z,100.00
2023-03-24T04:11:53.953Z,100.00
2023-03-24T04:14:52.951Z,100.00
2023-03-24T04:18:05.103Z,100.00
2023-03-24T04:21:04.123Z,100.00
2023-03-24T04:24:33.993Z,100.00
2023-03-24T04:27:52.954Z,100.00
2023-03-24T04:30:48.975Z,100.00
2023-03-24T04:33:39.182Z,100.00
2023-03-24T04:36:38.975Z,100.00
2023-03-24T04:39:12.862Z,100.00
2023-03-24T04:42:03.961Z,100.00
2023-03-24T04:44:47.971Z,100.00
2023-03-24T04:47:46.008Z,100.00
2023-03-24T04:50:44.969Z,100.00
2023-03-24T04:53:18.208Z,100.00
2023-03-24T04:56:36.104Z,100.00
2023-03-24T04:59:09.243Z,100.00
2023-03-24T05:01:58.967Z,100.00
2023-03-24T05:04:43.002Z,100.00
2023-03-24T05:07:36.961Z,100.00
2023-03-24T05:10:24.997Z,100.00
2023-03-24T05:13:04.979Z,100.00
2023-03-24T05:15:59.001Z,100.00
2023-03-24T05:18:45.988Z,100.00
2023-03-24T05:21:26.962Z,100.00
2023-03-24T05:24:20.978Z,100.00
2023-03-24T05:27:07.989Z,100.00
2023-03-24T05:29:41.100Z,100.00
2023-03-24T05:32:28.005Z,100.00
2023-03-24T05:35:07.996Z,100.00
2023-03-24T05:38:02.011Z,100.00
2023-03-24T05:40:48.985Z,100.00
2023-03-24T05:43:22.084Z,100.00
2023-03-24T05:46:09.061Z,100.00
2023-03-24T05:48:49.008Z,100.00
2023-03-24T05:51:42.997Z,100.00
2023-03-24T05:54:36.986Z,99.34
2023-03-24T05:57:24.986Z,98.03
2023-03-24T05:59:58.207Z,97.85
2023-03-24T06:02:46.116Z,97.12
2023-03-24T06:05:20.447Z,96.76
2023-03-24T06:08:08.007Z,96.08
2023-03-24T06:10:41.158Z,95.88
2023-03-24T06:13:28.002Z,95.65
2023-03-24T06:16:03.610Z,95.31
2023-03-24T06:18:59.026Z,95.39
2023-03-24T06:21:39.016Z,95.32
2023-03-24T06:24:26.021Z,95.74
2023-03-24T06:27:10.010Z,95.79
2023-03-24T06:29:57.011Z,96.12
2023-03-24T06:32:31.186Z,96.05
2023-03-24T06:35:18.063Z,96.05
2023-03-24T06:37:58.014Z,96.40
2023-03-24T06:40:52.039Z,96.63
2023-03-24T06:43:46.013Z,96.80
2023-03-24T06:46:33.060Z,97.53
2023-03-24T06:49:13.020Z,97.41
2023-03-24T06:52:01.012Z,97.83
2023-03-24T06:54:34.152Z,98.05
2023-03-24T06:57:21.042Z,98.56
2023-03-24T07:00:01.045Z,98.67
2023-03-24T07:02:55.076Z,99.42
2023-03-24T07:05:50.027Z,99.99
2023-03-24T07:08:38.007Z,100.00
2023-03-24T07:11:32.029Z,100.00
2023-03-24T07:14:19.057Z,100.00
2023-03-24T07:16:59.060Z,100.00
2023-03-24T07:19:53.077Z,100.00
2023-03-24T07:22:47.046Z,100.00
2023-03-24T07:25:41.034Z,100.00
2023-03-24T07:28:35.049Z,100.00
2023-03-24T07:31:22.081Z,100.00
2023-03-24T07:34:02.193Z,100.00
2023-03-24T07:36:49.035Z,100.00
2023-03-24T07:39:22.213Z,100.00
2023-03-24T07:42:10.998Z,100.00
2023-03-24T07:44:52.046Z,100.00
2023-03-24T07:47:46.077Z,100.00
2023-03-24T07:50:40.044Z,100.00
2023-03-24T07:53:34.157Z,100.00
2023-03-24T07:56:22.064Z,100.00
2023-03-24T07:58:55.235Z,100.00
2023-03-24T08:01:44.149Z,100.00
2023-03-24T08:04:20.272Z,100.00
2023-03-24T08:07:07.075Z,100.00
2023-03-24T08:09:40.148Z,100.00
2023-03-24T08:12:27.072Z,100.00
2023-03-24T08:15:07.062Z,100.00
2023-03-24T08:18:03.089Z,100.00
2023-03-24T08:20:57.112Z,100.00
2023-03-24T08:23:51.056Z,100.00
2023-03-24T08:26:42.093Z,100.00
2023-03-24T08:29:25.077Z,100.00
2023-03-24T08:32:19.074Z,100.00
2023-03-24T08:35:06.101Z,100.00
2023-03-24T08:37:39.190Z,100.00
2023-03-24T08:40:30.077Z,100.00
2023-03-24T08:43:08.557Z,100.00
2023-03-24T08:45:55.109Z,100.00
2023-03-24T08:48:35.082Z,100.00
2023-03-24T08:51:31.148Z,100.00
2023-03-24T08:54:19.103Z,99.70
2023-03-24T08:56:52.265Z,99.35
2023-03-24T08:59:39.123Z,97.64
2023-03-24T09:02:12.216Z,97.11
2023-03-24T09:05:01.127Z,94.99
2023-03-24T09:07:34.238Z,94.09
2023-03-24T09:10:22.122Z,91.89
2023-03-24T09:13:02.084Z,91.91
2023-03-24T09:16:01.075Z,91.04
2023-03-24T09:18:55.101Z,90.08
2023-03-24T09:21:49.073Z,91.27
2023-03-24T09:24:43.115Z,89.64
2023-03-24T09:27:32.934Z,89.36
2023-03-24T09:30:13.093Z,88.70
2023-03-24T09:33:07.142Z,87.09
2023-03-24T09:36:00.562Z,87.80
2023-03-24T09:38:42.095Z,87.88
2023-03-24T09:41:44.089Z,87.37
2023-03-24T09:44:55.121Z,85.21
2023-03-24T09:47:52.133Z,86.44
2023-03-24T09:51:12.239Z,85.96
2023-03-24T09:54:06.109Z,85.70
2023-03-24T09:56:54.138Z,84.93
2023-03-24T09:59:45.152Z,84.85
2023-03-24T10:02:37.172Z,84.33
2023-03-24T10:05:19.249Z,82.65
2023-03-24T10:08:29.447Z,81.07
2023-03-24T10:11:31.115Z,80.84
2023-03-24T10:14:42.124Z,78.85
2023-03-24T10:17:59.283Z,77.05
2023-03-24T10:20:54.141Z,77.24
2023-03-24T10:23:43.290Z,76.76
2023-03-24T10:26:44.250Z,75.44
2023-03-24T10:29:36.404Z,74.96
2023-03-24T10:32:27.160Z,74.87
2023-03-24T10:35:16.168Z,73.28
2023-03-24T10:38:08.125Z,71.59
2023-03-24T10:40:48.124Z,72.07
2023-03-24T10:43:43.174Z,70.27
2023-03-24T10:46:35.190Z,70.57
2023-03-24T10:49:42.149Z,70.16
2023-03-24T10:52:38.089Z,70.65
2023-03-24T10:55:28.169Z,68.87
2023-03-24T10:58:04.271Z,70.32
2023-03-24T11:00:52.267Z,68.52
2023-03-24T11:03:36.275Z,66.59
2023-03-24T11:06:26.140Z,67.63
2023-03-24T11:09:33.163Z,66.77
2023-03-24T11:12:41.151Z,66.71
2023-03-24T11:15:37.244Z,65.89
2023-03-24T11:18:19.543Z,66.66
2023-03-24T11:21:11.153Z,65.48
2023-03-24T11:23:45.706Z,65.96
2023-03-24T11:26:42.224Z,64.39
2023-03-24T11:29:28.074Z,64.87
2023-03-24T11:32:36.264Z,64.40
2023-03-24T11:35:32.155Z,64.08
2023-03-24T11:38:41.171Z,63.55
2023-03-24T11:41:28.166Z,63.25
2023-03-24T11:44:37.214Z,62.99
2023-03-24T11:47:31.250Z,62.69
2023-03-24T11:50:21.253Z,61.75
2023-03-24T11:53:30.230Z,61.96
2023-03-24T11:56:16.679Z,62.57
2023-03-24T11:59:30.261Z,62.18
2023-03-24T12:02:22.292Z,61.42
2023-03-24T12:05:31.199Z,61.38
2023-03-24T12:08:40.248Z,61.36
2023-03-24T12:11:33.224Z,61.41
2023-03-24T12:14:16.233Z,61.47
2023-03-24T12:17:21.236Z,60.73
2023-03-24T12:20:16.374Z,60.63
2023-03-24T12:23:47.246Z,60.38
2023-03-24T12:26:45.255Z,59.92
2023-03-24T12:30:09.197Z,59.17
2023-03-24T12:33:45.285Z,60.70
2023-03-24T12:36:31.885Z,61.05
2023-03-24T12:39:23.308Z,59.62
2023-03-24T12:42:12.711Z,59.40
2023-03-24T12:45:14.240Z,58.65
2023-03-24T12:48:15.517Z,58.24
2023-03-24T12:51:20.229Z,59.63
2023-03-24T12:54:03.861Z,58.46
2023-03-24T12:57:06.324Z,58.32
2023-03-24T13:00:19.334Z,58.59
2023-03-24T13:03:38.230Z,58.15
2023-03-24T13:06:22.447Z,58.20
2023-03-24T13:09:18.237Z,58.70
2023-03-24T13:11:57.431Z,58.06
2023-03-24T13:15:14.237Z,58.06
2023-03-24T13:18:07.066Z,58.84
2023-03-24T13:21:18.246Z,59.00
2023-03-24T13:24:15.580Z,59.30
2023-03-24T13:27:13.246Z,58.34
2023-03-24T13:30:02.396Z,59.04
2023-03-24T13:32:58.306Z,58.44
2023-03-24T13:35:48.233Z,59.39
2023-03-24T13:38:45.279Z,59.29
2023-03-24T13:41:31.270Z,60.14
2023-03-24T13:44:32.239Z,59.79
2023-03-24T13:47:07.427Z,60.47
2023-03-24T13:50:20.476Z,60.99
2023-03-24T13:53:10.974Z,61.03
2023-03-24T13:56:02.296Z,60.89
2023-03-24T13:59:12.385Z,60.90
2023-03-24T14:02:24.531Z,61.48
2023-03-24T14:05:34.417Z,61.86
2023-03-24T14:08:41.269Z,61.74
2023-03-24T14:11:49.306Z,61.88
2023-03-24T14:14:46.149Z,61.30
2023-03-24T14:17:33.454Z,61.99
2023-03-24T14:20:10.668Z,62.33
2023-03-24T14:22:58.266Z,62.15
2023-03-24T14:25:37.353Z,63.08
2023-03-24T14:28:34.258Z,62.23
2023-03-24T14:31:42.391Z,62.58
2023-03-24T14:34:32.267Z,62.80
2023-03-24T14:37:09.530Z,62.65
2023-03-24T14:39:57.381Z,62.89
2023-03-24T14:42:46.338Z,62.55
2023-03-24T14:45:33.508Z,63.31
2023-03-24T14:48:16.266Z,63.34
2023-03-24T14:51:17.319Z,62.75
2023-03-24T14:54:05.351Z,62.83
2023-03-24T14:56:47.154Z,63.16
2023-03-24T14:59:38.356Z,63.15
2023-03-24T15:02:30.450Z,63.50
2023-03-24T15:05:27.395Z,63.50
2023-03-24T15:08:21.347Z,63.50
2023-03-24T15:11:12.327Z,63.95
2023-03-24T15:13:59.397Z,63.33
2023-03-24T15:16:46.339Z,63.88
2023-03-24T15:19:29.411Z,63.44
2023-03-24T15:22:20.398Z,64.15
2023-03-24T15:25:03.317Z,64.20
2023-03-24T15:28:04.334Z,63.99
2023-03-24T15:30:51.546Z,64.06
2023-03-24T15:33:26.180Z,64.83
2023-03-24T15:36:21.317Z,64.81
2023-03-24T15:39:00.196Z,64.91
2023-03-24T15:41:47.383Z,64.67
2023-03-24T15:44:26.472Z,65.10
2023-03-24T15:47:29.716Z,64.95
2023-03-24T15:50:07.610Z,65.00
2023-03-24T15:53:07.910Z,65.58
2023-03-24T15:55:43.461Z,65.95
2023-03-24T15:58:35.360Z,66.15
2023-03-24T16:01:09.742Z,66.24
2023-03-24T16:03:57.475Z,65.97
2023-03-24T16:06:44.377Z,66.81
2023-03-24T16:09:38.401Z,66.99
2023-03-24T16:12:25.358Z,67.35
2023-03-24T16:14:58.618Z,67.51
2023-03-24T16:17:45.430Z,67.62
2023-03-24T16:20:28.433Z,68.15
2023-03-24T16:23:20.154Z,68.15
2023-03-24T16:25:53.440Z,68.21
2023-03-24T16:28:42.367Z,68.52
2023-03-24T16:31:25.558Z,68.96
2023-03-24T16:34:14.133Z,68.93
2023-03-24T16:36:48.451Z,69.32
2023-03-24T16:39:37.398Z,69.70
2023-03-24T16:42:10.654Z,69.96
2023-03-24T16:44:58.342Z,70.52
2023-03-24T16:47:31.620Z,70.17
2023-03-24T16:50:47.559Z,70.62
2023-03-24T16:53:30.389Z,70.78
2023-03-24T16:56:28.516Z,70.88
2023-03-24T16:59:15.409Z,71.10
2023-03-24T17:01:58.404Z,71.43
2023-03-24T17:04:53.399Z,71.95
2023-03-24T17:07:47.653Z,71.65
2023-03-24T17:10:42.383Z,71.78
2023-03-24T17:13:32.390Z,71.91
2023-03-24T17:16:05.496Z,72.21
2023-03-24T17:18:52.395Z,72.05
2023-03-24T17:21:26.458Z,72.18
2023-03-24T17:24:20.383Z,72.28
2023-03-24T17:27:14.386Z,71.97
2023-03-24T17:30:01.377Z,72.17
2023-03-24T17:32:36.579Z,72.49
2023-03-24T17:35:26.407Z,72.86
2023-03-24T17:37:59.496Z,72.92
2023-03-24T17:40:48.829Z,73.34
2023-03-24T17:43:22.475Z,73.42
2023-03-24T17:46:10.448Z,73.91
2023-03-24T17:48:50.384Z,74.24
2023-03-24T17:51:44.386Z,73.81
2023-03-24T17:54:32.390Z,74.15
2023-03-24T17:57:05.820Z,74.88
2023-03-24T17:59:53.156Z,74.75
2023-03-24T18:02:33.404Z,74.85
2023-03-24T18:05:27.398Z,75.68
2023-03-24T18:08:14.386Z,75.81
2023-03-24T18:10:47.857Z,75.89
2023-03-24T18:13:35.369Z,76.26
2023-03-24T18:16:19.942Z,76.40
2023-03-24T18:19:08.428Z,76.69
2023-03-24T18:21:48.430Z,77.36
2023-03-24T18:24:42.437Z,77.86
2023-03-24T18:27:38.467Z,78.03
2023-03-24T18:30:25.379Z,78.50
2023-03-24T18:33:01.467Z,78.84
2023-03-24T18:35:48.421Z,78.63
2023-03-24T18:38:22.504Z,79.29
2023-03-24T18:41:14.451Z,79.77
2023-03-24T18:43:48.312Z,79.96
2023-03-24T18:46:35.441Z,80.37
2023-03-24T18:49:08.567Z,80.52
2023-03-24T18:51:49.393Z,81.04
2023-03-24T18:54:29.403Z,81.03
2023-03-24T18:57:09.427Z,81.38
2023-03-24T18:59:56.463Z,81.68
2023-03-24T19:02:36.481Z,81.89
2023-03-24T19:05:30.430Z,82.11
2023-03-24T19:08:21.401Z,82.20
2023-03-24T19:10:55.584Z,81.90
2023-03-24T19:13:42.440Z,82.13
2023-03-24T19:16:18.798Z,82.27
2023-03-24T19:19:08.769Z,82.93
2023-03-24T19:21:42.868Z,82.79
2023-03-24T19:24:36.437Z,83.48
2023-03-24T19:27:30.430Z,83.63
2023-03-24T19:30:18.453Z,83.65
2023-03-24T19:32:52.833Z,83.56
2023-03-24T19:35:40.479Z,84.05
2023-03-24T19:38:14.206Z,84.02
2023-03-24T19:41:00.442Z,84.34
2023-03-24T19:43:34.683Z,84.60
2023-03-24T19:46:23.453Z,84.88
2023-03-24T19:48:56.826Z,85.21
2023-03-24T19:51:43.420Z,85.49
2023-03-24T19:54:23.412Z,85.47
2023-03-24T19:57:17.443Z,85.46
2023-03-24T20:00:12.458Z,85.70
2023-03-24T20:02:59.540Z,85.79
2023-03-24T20:05:39.440Z,86.09
2023-03-24T20:08:27.437Z,86.34
2023-03-24T20:11:07.434Z,86.74
2023-03-24T20:14:01.431Z,87.30
2023-03-24T20:16:48.454Z,87.86
2023-03-24T20:19:21.548Z,88.04
2023-03-24T20:22:08.500Z,88.88
2023-03-24T20:24:42.760Z,88.58
2023-03-24T20:27:29.462Z,89.24
2023-03-24T20:30:03.414Z,89.25
2023-03-24T20:32:50.501Z,89.66
2023-03-24T20:35:23.559Z,89.93
2023-03-24T20:38:10.441Z,89.67
2023-03-24T20:40:43.578Z,89.36
2023-03-24T20:43:30.468Z,89.91
2023-03-24T20:46:04.684Z,90.17
2023-03-24T20:48:51.481Z,90.68
2023-03-24T20:51:24.648Z,90.98
2023-03-24T20:54:12.473Z,91.00
2023-03-24T20:56:52.545Z,91.08
2023-03-24T20:59:39.510Z,91.73
2023-03-24T21:02:13.676Z,92.22
2023-03-24T21:05:00.478Z,92.85
2023-03-24T21:07:34.413Z,92.92
2023-03-24T21:10:21.467Z,93.52
2023-03-24T21:13:01.491Z,93.64
2023-03-24T21:15:50.633Z,93.96
2023-03-24T21:18:31.436Z,93.98
2023-03-24T21:21:19.620Z,94.44
2023-03-24T21:24:02.468Z,94.92
2023-03-24T21:26:57.483Z,95.31
2023-03-24T21:29:51.494Z,96.02
2023-03-24T21:32:45.483Z,96.06
2023-03-24T21:35:39.472Z,96.43
2023-03-24T21:38:26.485Z,96.69
2023-03-24T21:41:06.600Z,97.19
2023-03-24T21:43:57.480Z,97.94
2023-03-24T21:46:32.122Z,98.02
2023-03-24T21:49:19.492Z,98.71
2023-03-24T21:51:55.123Z,99.16
2023-03-24T21:54:41.485Z,100.00
2023-03-24T21:57:21.492Z,99.73
2023-03-24T22:00:20.496Z,100.00
2023-03-24T22:03:08.565Z,100.00
2023-03-24T22:05:45.991Z,100.00
2023-03-24T22:08:37.483Z,100.00
2023-03-24T22:11:18.565Z,100.00
2023-03-24T22:14:05.508Z,100.00
2023-03-24T22:16:45.555Z,100.00
2023-03-24T22:19:39.512Z,100.00
2023-03-24T22:22:33.507Z,100.00
2023-03-24T22:25:30.519Z,100.00
2023-03-24T22:28:17.505Z,100.00
2023-03-24T22:30:57.505Z,100.00
2023-03-24T22:33:44.540Z,100.00
2023-03-24T22:36:18.683Z,100.00
2023-03-24T22:39:05.503Z,100.00
2023-03-24T22:41:45.505Z,100.00
2023-03-24T22:44:32.537Z,100.00
2023-03-24T22:47:13.505Z,100.00
2023-03-24T22:50:00.512Z,100.00
2023-03-24T22:52:40.511Z,100.00
2023-03-24T22:55:34.498Z,100.00
2023-03-24T22:58:21.514Z,100.00
2023-03-24T23:00:56.606Z,100.00
2023-03-24T23:03:43.513Z,100.00
2023-03-24T23:06:17.664Z,100.00
2023-03-24T23:09:06.529Z,100.00
2023-03-24T23:11:39.621Z,100.00
2023-03-24T23:14:26.525Z,100.00
2023-03-24T23:16:59.758Z,100.00
2023-03-24T23:19:46.584Z,100.00
2023-03-24T23:22:19.870Z,100.00
2023-03-24T23:25:13.524Z,100.00
2023-03-24T23:28:07.511Z,100.00
2023-03-24T23:30:54.534Z,100.00
2023-03-24T23:33:27.721Z,100.00
2023-03-24T23:36:17.116Z,100.00
2023-03-24T23:38:54.581Z,100.00
2023-03-24T23:41:41.580Z,100.00
2023-03-24T23:44:19.568Z,100.00
2023-03-24T23:47:06.551Z,100.00
2023-03-24T23:49:46.550Z,100.00
2023-03-24T23:52:33.558Z,100.00
2023-03-24T23:55:06.673Z,100.00
2023-03-24T23:57:55.548Z,100.00
